Time;durP1;ratioP1;P1;durP2;ratioP2;P2;SDS_P1;SDS_P2;PMS_P1;PMS_P2;Temp;Humidity;BMP_temperature;BMP_pressure;BME280_temperature;BME280_humidity;BME280_pressure;Samples;Min_cycle;Max_cycle;Signal;HPM_P1;HPM_P2
2023/04/11 00:01:28;;;;;;;4.65;2.63;;;4.90;99.90;;;;;;5093378;28;20031;-81
2023/04/11 00:03:55;;;;;;;5.25;2.58;;;4.90;99.90;;;;;;5088738;28;20032;-81
2023/04/11 00:06:21;;;;;;;5.80;2.55;;;4.90;99.90;;;;;;5071062;28;20028;-81
2023/04/11 00:08:47;;;;;;;4.38;2.75;;;4.90;99.90;;;;;;5096813;28;20077;-81
2023/04/11 00:11:13;;;;;;;5.00;2.80;;;4.90;99.90;;;;;;5081262;28;20064;-81
2023/04/11 00:13:38;;;;;;;4.55;2.90;;;4.90;99.90;;;;;;5072196;28;20092;-81
2023/04/11 00:16:07;;;;;;;5.20;2.72;;;4.90;99.90;;;;;;5076526;28;20024;-81
2023/04/11 00:18:35;;;;;;;4.20;2.70;;;4.90;99.90;;;;;;5048095;28;20029;-81
2023/04/11 00:21:02;;;;;;;4.25;2.40;;;4.90;99.90;;;;;;5059119;28;20111;-82
2023/04/11 00:23:27;;;;;;;4.70;2.70;;;4.90;99.90;;;;;;5063053;28;20032;-81
2023/04/11 00:25:53;;;;;;;5.18;3.10;;;5.00;99.90;;;;;;5096750;28;20059;-81
2023/04/11 00:28:19;;;;;;;5.00;2.63;;;4.90;99.90;;;;;;5072083;28;20493;-81
2023/04/11 00:30:44;;;;;;;4.75;2.80;;;5.00;99.90;;;;;;5082393;28;20397;-81
2023/04/11 00:33:10;;;;;;;3.83;2.30;;;4.90;99.90;;;;;;5074726;28;20509;-81
2023/04/11 00:35:38;;;;;;;4.15;2.72;;;4.90;99.90;;;;;;5057856;28;20405;-81
2023/04/11 00:38:04;;;;;;;3.97;2.33;;;4.90;99.90;;;;;;5076379;28;20029;-81
2023/04/11 00:40:30;;;;;;;4.38;2.75;;;4.90;99.90;;;;;;5075898;28;20533;-80
2023/04/11 00:42:56;;;;;;;8.30;3.60;;;4.80;99.90;;;;;;5070384;28;20020;-81
2023/04/11 00:45:22;;;;;;;4.90;3.00;;;4.70;99.90;;;;;;5046260;28;20481;-81
2023/04/11 00:47:49;;;;;;;4.95;3.10;;;4.60;99.90;;;;;;5092581;28;20028;-81
2023/04/11 00:50:15;;;;;;;4.47;2.63;;;4.60;99.90;;;;;;5066831;28;20398;-81
2023/04/11 00:52:45;;;;;;;4.65;3.00;;;4.60;99.90;;;;;;5061114;28;20437;-81
2023/04/11 00:55:11;;;;;;;4.32;2.40;;;4.60;99.90;;;;;;5077204;28;20087;-81
2023/04/11 00:57:37;;;;;;;3.70;2.45;;;4.60;99.90;;;;;;5058471;28;20418;-81
2023/04/11 01:00:03;;;;;;;3.40;2.17;;;4.60;99.90;;;;;;5041147;28;20032;-81
2023/04/11 01:02:29;;;;;;;3.30;2.15;;;4.60;99.90;;;;;;5058919;28;20036;-81
2023/04/11 01:04:56;;;;;;;4.57;2.22;;;4.60;99.90;;;;;;5094257;28;20039;-82
2023/04/11 01:07:23;;;;;;;3.38;2.13;;;4.60;99.90;;;;;;5065005;28;20370;-81
2023/04/11 01:09:50;;;;;;;5.85;2.83;;;4.60;99.90;;;;;;5078833;28;20036;-81
2023/04/11 01:12:16;;;;;;;5.85;3.22;;;4.70;99.90;;;;;;5088818;28;20050;-81
2023/04/11 01:14:46;;;;;;;5.53;3.00;;;4.60;99.90;;;;;;5081791;28;20032;-80
2023/04/11 01:17:13;;;;;;;5.57;3.20;;;4.60;99.90;;;;;;5076452;28;20112;-81
2023/04/11 01:19:39;;;;;;;5.63;3.15;;;4.60;99.90;;;;;;5089620;28;20481;-81
2023/04/11 01:22:05;;;;;;;4.85;2.83;;;4.60;99.90;;;;;;5088466;28;20074;-81
2023/04/11 01:24:31;;;;;;;4.18;2.35;;;4.60;99.90;;;;;;5087942;28;20031;-81
2023/04/11 01:26:58;;;;;;;3.22;2.10;;;4.60;99.90;;;;;;5082699;28;20040;-81
2023/04/11 01:29:23;;;;;;;4.13;2.35;;;4.60;99.90;;;;;;5070154;28;20054;-82
2023/04/11 01:31:50;;;;;;;3.72;2.30;;;4.60;99.90;;;;;;5071537;28;20032;-82
2023/04/11 01:34:17;;;;;;;3.10;1.98;;;4.60;99.90;;;;;;5089665;28;20077;-82
2023/04/11 01:36:44;;;;;;;3.65;2.28;;;4.60;99.90;;;;;;5064746;28;20082;-81
2023/04/11 01:39:09;;;;;;;4.55;2.50;;;4.50;99.90;;;;;;5093403;28;20069;-81
2023/04/11 01:41:36;;;;;;;4.22;2.25;;;4.50;99.90;;;;;;5068720;28;20033;-82
2023/04/11 01:44:04;;;;;;;5.22;2.20;;;4.50;99.90;;;;;;5048079;28;20028;-81
2023/04/11 01:46:31;;;;;;;4.32;2.10;;;4.60;99.90;;;;;;5068947;28;20073;-81
2023/04/11 01:48:58;;;;;;;5.72;2.70;;;4.50;99.90;;;;;;5090643;28;20107;-82
2023/04/11 01:51:24;;;;;;;4.22;2.60;;;4.50;99.90;;;;;;5095198;28;20366;-81
2023/04/11 01:53:50;;;;;;;4.22;2.53;;;4.40;99.90;;;;;;5088939;28;20037;-81
2023/04/11 01:56:15;;;;;;;3.92;2.38;;;4.40;99.90;;;;;;5042633;28;20035;-81
2023/04/11 01:58:41;;;;;;;3.97;2.17;;;4.40;99.90;;;;;;5058704;28;20123;-82
2023/04/11 02:01:07;;;;;;;6.60;3.35;;;4.40;99.90;;;;;;5063759;28;20036;-81
2023/04/11 02:03:33;;;;;;;12.88;5.72;;;4.40;99.90;;;;;;5076505;28;20027;-81
2023/04/11 02:05:58;;;;;;;12.07;5.93;;;4.50;99.90;;;;;;5058526;28;20099;-81
2023/04/11 02:08:24;;;;;;;9.20;4.80;;;4.50;99.90;;;;;;5057988;28;20037;-81
2023/04/11 02:10:50;;;;;;;5.75;2.95;;;4.50;99.90;;;;;;5075195;28;20478;-81
2023/04/11 02:13:15;;;;;;;4.93;2.42;;;4.50;99.90;;;;;;5074759;28;20081;-81
2023/04/11 02:15:41;;;;;;;5.22;2.72;;;4.50;99.90;;;;;;5057502;28;20021;-81
2023/04/11 02:18:08;;;;;;;5.85;2.75;;;4.40;99.90;;;;;;5040272;28;20077;-81
2023/04/11 02:20:36;;;;;;;5.88;2.72;;;4.40;99.90;;;;;;5094403;28;20028;-81
2023/04/11 02:23:03;;;;;;;4.20;2.63;;;4.40;99.90;;;;;;5078987;28;20020;-81
2023/04/11 02:25:30;;;;;;;5.03;3.08;;;4.30;99.90;;;;;;5057047;28;20025;-81
2023/04/11 02:27:55;;;;;;;5.82;2.78;;;4.30;99.90;;;;;;5056686;28;20074;-81
2023/04/11 02:30:21;;;;;;;5.60;3.13;;;4.30;99.90;;;;;;5056546;28;20028;-81
2023/04/11 02:32:48;;;;;;;5.53;3.13;;;4.30;99.90;;;;;;5112977;28;20107;-81
2023/04/11 02:35:15;;;;;;;8.82;4.07;;;4.30;99.90;;;;;;5097001;28;20389;-81
2023/04/11 02:37:41;;;;;;;7.28;3.83;;;4.30;99.90;;;;;;5071615;28;20119;-81
2023/04/11 02:40:08;;;;;;;4.53;3.00;;;4.30;99.90;;;;;;5074544;28;20040;-81
2023/04/11 02:42:33;;;;;;;5.03;2.80;;;4.30;99.90;;;;;;5056670;28;20028;-81
2023/04/11 02:44:59;;;;;;;4.50;2.35;;;4.30;99.90;;;;;;5057873;28;20394;-81
2023/04/11 02:47:25;;;;;;;5.63;2.67;;;4.30;99.90;;;;;;5056370;28;20064;-81
2023/04/11 02:49:51;;;;;;;4.22;2.20;;;4.30;99.90;;;;;;5088555;28;20052;-81
2023/04/11 02:52:17;;;;;;;3.72;2.22;;;4.30;99.90;;;;;;5076625;28;20060;-81
2023/04/11 02:54:43;;;;;;;6.15;2.33;;;4.20;99.90;;;;;;5076702;28;20380;-81
2023/04/11 02:57:09;;;;;;;4.35;2.72;;;4.20;99.90;;;;;;5074534;28;20017;-81
2023/04/11 02:59:35;;;;;;;5.50;2.60;;;4.20;99.90;;;;;;5055778;28;20427;-81
2023/04/11 03:02:01;;;;;;;3.30;2.08;;;4.20;99.90;;;;;;5058676;28;20024;-80
2023/04/11 03:04:27;;;;;;;5.00;2.08;;;4.10;99.90;;;;;;5056124;28;20401;-81
2023/04/11 03:06:52;;;;;;;5.18;2.13;;;4.10;99.90;;;;;;5073747;28;20040;-81
2023/04/11 03:09:19;;;;;;;4.57;2.38;;;4.10;99.90;;;;;;5074032;28;20031;-81
2023/04/11 03:11:45;;;;;;;3.55;2.17;;;4.10;99.90;;;;;;5082253;28;20040;-81
2023/04/11 03:14:10;;;;;;;4.03;2.42;;;4.00;99.90;;;;;;5075662;28;20409;-81
2023/04/11 03:16:36;;;;;;;4.53;2.72;;;4.00;99.90;;;;;;5074974;28;20028;-81
2023/04/11 03:19:02;;;;;;;4.82;2.67;;;3.90;99.90;;;;;;5074190;28;20020;-82
2023/04/11 03:21:27;;;;;;;4.05;2.30;;;3.90;99.90;;;;;;5050292;28;20028;-81
2023/04/11 03:23:53;;;;;;;4.05;2.40;;;3.90;99.90;;;;;;5074574;28;20036;-80
2023/04/11 03:26:19;;;;;;;5.20;2.80;;;3.90;99.90;;;;;;5077007;28;20120;-81
2023/04/11 03:28:45;;;;;;;5.10;2.55;;;3.90;99.90;;;;;;5060420;28;20025;-79
2023/04/11 03:31:11;;;;;;;4.35;2.40;;;3.90;99.90;;;;;;5071553;28;20042;-80
2023/04/11 03:33:37;;;;;;;4.75;2.80;;;3.90;99.90;;;;;;5106139;28;20035;-81
2023/04/11 03:36:04;;;;;;;4.75;2.58;;;4.00;99.90;;;;;;5065371;28;20033;-81
2023/04/11 03:38:30;;;;;;;5.15;2.67;;;4.00;99.90;;;;;;5082998;28;20024;-81
2023/04/11 03:40:56;;;;;;;5.40;2.60;;;4.10;99.90;;;;;;5071473;28;20082;-82
2023/04/11 03:43:21;;;;;;;4.95;2.45;;;4.10;99.90;;;;;;5066221;28;20040;-82
2023/04/11 03:45:47;;;;;;;14.35;7.13;;;4.10;99.90;;;;;;5093990;28;20032;-82
2023/04/11 03:48:13;;;;;;;16.25;7.30;;;4.10;99.90;;;;;;5085644;28;20040;-82
2023/04/11 03:50:39;;;;;;;11.07;5.28;;;4.10;99.90;;;;;;5055048;28;20020;-82
2023/04/11 03:53:06;;;;;;;17.92;8.85;;;4.10;99.90;;;;;;5063904;28;20059;-81
2023/04/11 03:55:31;;;;;;;5.82;3.40;;;4.10;99.90;;;;;;5071064;28;20385;-81
2023/04/11 03:57:57;;;;;;;5.43;3.35;;;4.10;99.90;;;;;;5081753;28;20028;-81
2023/04/11 04:00:23;;;;;;;9.13;5.07;;;4.10;99.90;;;;;;5083504;28;20040;-82
2023/04/11 04:02:49;;;;;;;4.95;3.05;;;4.20;99.90;;;;;;5065618;28;20024;-80
2023/04/11 04:05:14;;;;;;;6.35;3.78;;;4.10;99.90;;;;;;5098578;28;20028;-80
2023/04/11 04:07:41;;;;;;;5.78;3.30;;;4.20;99.90;;;;;;5086160;28;20028;-81
2023/04/11 04:10:07;;;;;;;5.80;3.72;;;4.20;99.90;;;;;;5060178;28;20055;-80
2023/04/11 04:12:33;;;;;;;7.68;4.95;;;4.20;99.90;;;;;;5060206;28;20033;-82
2023/04/11 04:14:58;;;;;;;7.90;4.65;;;4.20;99.90;;;;;;5059981;28;20032;-80
2023/04/11 04:17:24;;;;;;;7.95;4.93;;;4.30;99.90;;;;;;5080039;28;20025;-81
2023/04/11 04:19:50;;;;;;;9.40;5.13;;;4.30;99.90;;;;;;5097841;28;20028;-81
2023/04/11 04:22:16;;;;;;;8.00;5.22;;;4.30;99.90;;;;;;5098618;28;20055;-80
2023/04/11 04:24:44;;;;;;;9.75;6.00;;;4.30;99.90;;;;;;5097073;28;20016;-81
2023/04/11 04:27:12;;;;;;;10.80;6.15;;;4.30;99.90;;;;;;5098888;28;20031;-82
2023/04/11 04:29:50;;;;;;;10.63;5.65;;;4.30;99.90;;;;;;5064283;28;20036;-81
2023/04/11 04:32:23;;;;;;;8.65;5.00;;;4.40;99.90;;;;;;5089220;28;20025;-81
2023/04/11 04:34:54;;;;;;;7.28;4.15;;;4.40;99.90;;;;;;5084067;28;20023;-81
2023/04/11 04:37:22;;;;;;;8.30;4.43;;;4.40;99.90;;;;;;5089944;28;20031;-81
2023/04/11 04:40:06;;;;;;;11.98;5.88;;;4.40;99.90;;;;;;5076323;28;20024;-81
2023/04/11 04:42:33;;;;;;;12.10;5.25;;;4.40;99.90;;;;;;5085914;28;20032;-81
2023/04/11 04:44:59;;;;;;;14.15;7.45;;;4.30;99.90;;;;;;5090478;28;20024;-81
2023/04/11 04:47:33;;;;;;;18.38;9.65;;;4.30;99.90;;;;;;5072225;28;20025;-81
2023/04/11 04:49:59;;;;;;;16.40;8.55;;;4.20;99.90;;;;;;5075889;28;20054;-81
2023/04/11 04:52:27;;;;;;;15.63;7.30;;;4.30;99.90;;;;;;5057958;28;20020;-78
2023/04/11 04:55:00;;;;;;;8.70;5.05;;;4.30;99.90;;;;;;5060309;28;20020;-79
2023/04/11 04:57:30;;;;;;;9.00;5.50;;;4.30;99.90;;;;;;5058136;28;20020;-78
2023/04/11 04:59:56;;;;;;;10.35;6.20;;;4.30;99.90;;;;;;5075978;28;20063;-79
2023/04/11 05:02:24;;;;;;;10.00;5.90;;;4.40;99.90;;;;;;5058341;28;20036;-80
2023/04/11 05:04:50;;;;;;;7.75;5.18;;;4.40;99.90;;;;;;5091082;28;20548;-79
2023/04/11 05:07:19;;;;;;;7.80;4.85;;;4.40;99.90;;;;;;5068462;28;20060;-81
2023/04/11 05:09:45;;;;;;;8.82;3.90;;;4.40;99.90;;;;;;5075777;28;20554;-80
2023/04/11 05:12:14;;;;;;;7.93;4.07;;;4.40;99.90;;;;;;5058265;28;20043;-81
2023/04/11 05:14:39;;;;;;;7.72;3.75;;;4.40;99.90;;;;;;5091745;28;20032;-81
2023/04/11 05:17:05;;;;;;;6.03;3.05;;;4.40;99.90;;;;;;5094038;28;20121;-81
2023/04/11 05:19:31;;;;;;;6.38;3.08;;;4.40;99.90;;;;;;5067014;28;20580;-81
2023/04/11 05:21:57;;;;;;;4.93;2.63;;;4.40;99.90;;;;;;5061765;28;20067;-81
2023/04/11 05:24:23;;;;;;;5.80;3.60;;;4.40;99.90;;;;;;5058463;28;20060;-82
2023/04/11 05:26:49;;;;;;;7.68;3.40;;;4.40;99.90;;;;;;5058110;28;20036;-81
2023/04/11 05:29:15;;;;;;;5.53;3.40;;;4.40;99.90;;;;;;5068809;28;20036;-81
2023/04/11 05:31:40;;;;;;;8.55;4.07;;;4.40;99.90;;;;;;5067991;28;20036;-82
2023/04/11 05:34:06;;;;;;;7.95;3.83;;;4.40;99.90;;;;;;5079528;28;20009;-82
2023/04/11 05:36:32;;;;;;;10.32;3.40;;;4.50;99.90;;;;;;5097390;28;20036;-83
2023/04/11 05:38:57;;;;;;;9.38;4.30;;;4.40;99.90;;;;;;5062890;28;20448;-82
2023/04/11 05:41:23;;;;;;;6.07;3.45;;;4.50;99.90;;;;;;5087688;28;20031;-82
2023/04/11 05:43:49;;;;;;;6.35;3.50;;;4.50;99.90;;;;;;5079441;28;20041;-82
2023/04/11 05:46:16;;;;;;;5.53;3.33;;;4.50;99.90;;;;;;5062236;28;20039;-82
2023/04/11 05:48:42;;;;;;;5.30;3.15;;;4.60;99.90;;;;;;5096175;28;20049;-81
2023/04/11 05:51:07;;;;;;;5.57;3.20;;;4.60;99.90;;;;;;5077949;28;20028;-81
2023/04/11 05:53:33;;;;;;;5.60;3.45;;;4.60;99.90;;;;;;5075543;28;20055;-81
2023/04/11 05:56:00;;;;;;;6.03;3.35;;;4.60;99.90;;;;;;5075056;28;20491;-81
2023/04/11 05:58:26;;;;;;;9.25;4.80;;;4.60;99.90;;;;;;5061808;28;20082;-81
2023/04/11 06:00:52;;;;;;;6.82;3.85;;;4.70;99.90;;;;;;5074486;28;20032;-81
2023/04/11 06:03:18;;;;;;;5.75;3.13;;;4.70;99.90;;;;;;5056361;28;20474;-80
2023/04/11 06:05:44;;;;;;;6.18;3.40;;;4.70;99.90;;;;;;5074832;28;20036;-80
2023/04/11 06:08:10;;;;;;;7.03;3.72;;;4.70;99.90;;;;;;5060608;28;20381;-81
2023/04/11 06:10:36;;;;;;;6.55;3.20;;;4.70;99.90;;;;;;5076828;28;20028;-81
2023/04/11 06:13:02;;;;;;;6.05;3.55;;;4.80;99.90;;;;;;5061505;28;20482;-80
2023/04/11 06:15:28;;;;;;;6.85;4.20;;;4.80;99.90;;;;;;5039778;28;20040;-80
2023/04/11 06:17:54;;;;;;;6.93;3.75;;;4.80;99.90;;;;;;5074393;28;20016;-80
2023/04/11 06:20:23;;;;;;;5.80;3.65;;;4.90;99.90;;;;;;5055909;28;20106;-81
2023/04/11 06:22:50;;;;;;;7.00;3.90;;;4.90;99.90;;;;;;5088906;28;20074;-81
2023/04/11 06:25:17;;;;;;;6.07;3.35;;;4.90;99.90;;;;;;5088115;28;20060;-81
2023/04/11 06:27:43;;;;;;;7.75;3.60;;;5.00;99.90;;;;;;5081008;28;20032;-81
2023/04/11 06:30:09;;;;;;;5.82;3.22;;;5.00;99.90;;;;;;5044940;28;20115;-81
2023/04/11 06:32:34;;;;;;;13.15;9.73;;;5.00;99.90;;;;;;5084411;28;20436;-81
2023/04/11 06:35:00;;;;;;;7.65;4.60;;;5.10;99.90;;;;;;5064398;28;20028;-81
2023/04/11 06:37:26;;;;;;;6.78;3.75;;;5.10;99.90;;;;;;5039612;28;20048;-81
2023/04/11 06:39:51;;;;;;;6.80;3.50;;;5.10;99.90;;;;;;5056547;28;20074;-81
2023/04/11 06:42:17;;;;;;;7.07;3.58;;;5.20;99.90;;;;;;5074263;28;20393;-81
2023/04/11 06:44:45;;;;;;;6.28;3.30;;;5.20;99.90;;;;;;5079541;28;20125;-81
2023/04/11 06:47:10;;;;;;;5.43;2.95;;;5.20;99.90;;;;;;5074301;28;20052;-81
2023/04/11 06:49:36;;;;;;;6.78;3.38;;;5.30;99.90;;;;;;5039348;28;20064;-81
2023/04/11 06:52:02;;;;;;;6.22;3.10;;;5.30;99.90;;;;;;5071866;28;20024;-81
2023/04/11 06:54:28;;;;;;;5.00;2.83;;;5.40;99.90;;;;;;5065299;28;20031;-80
2023/04/11 06:56:56;;;;;;;6.50;4.00;;;5.40;99.90;;;;;;5073967;28;20021;-80
2023/04/11 06:59:21;;;;;;;6.10;3.67;;;5.50;99.90;;;;;;5056269;28;20029;-82
2023/04/11 07:01:48;;;;;;;6.18;3.60;;;5.50;99.90;;;;;;5055742;28;20111;-80
2023/04/11 07:04:14;;;;;;;5.45;3.47;;;5.60;99.90;;;;;;5073664;28;20389;-81
2023/04/11 07:06:39;;;;;;;5.18;3.28;;;5.60;99.90;;;;;;5068098;28;20024;-81
2023/04/11 07:09:05;;;;;;;5.93;3.10;;;5.60;99.90;;;;;;5073692;28;20040;-81
2023/04/11 07:11:32;;;;;;;6.88;3.70;;;5.70;99.90;;;;;;5073685;28;20501;-81
2023/04/11 07:13:59;;;;;;;12.75;5.20;;;5.70;99.90;;;;;;5079732;28;20025;-81
2023/04/11 07:16:25;;;;;;;9.10;5.18;;;5.90;99.90;;;;;;5056140;28;20021;-80
2023/04/11 07:18:52;;;;;;;8.55;4.95;;;6.00;99.90;;;;;;5075140;28;20020;-81
2023/04/11 07:21:18;;;;;;;7.90;4.85;;;6.00;99.90;;;;;;5078486;28;20397;-81
2023/04/11 07:23:44;;;;;;;6.80;4.40;;;6.10;99.90;;;;;;5073320;28;20028;-80
2023/04/11 07:26:11;;;;;;;7.50;3.80;;;6.10;99.90;;;;;;5090672;28;20510;-80
2023/04/11 07:28:37;;;;;;;8.15;4.20;;;6.10;99.90;;;;;;5094519;28;20031;-81
2023/04/11 07:31:04;;;;;;;6.68;3.88;;;6.10;99.90;;;;;;5089303;28;20025;-80
2023/04/11 07:33:30;;;;;;;14.50;7.20;;;6.20;99.90;;;;;;5039042;28;20071;-81
2023/04/11 07:35:56;;;;;;;8.43;4.95;;;6.20;99.90;;;;;;5083850;28;20040;-81
2023/04/11 07:38:28;;;;;;;8.35;4.07;;;6.20;99.90;;;;;;5088017;28;20012;-80
2023/04/11 07:40:59;;;;;;;6.68;4.57;;;6.30;99.90;;;;;;5058659;28;20451;-82
2023/04/11 07:43:25;;;;;;;;;;;6.40;99.90;;;;;;5086143;28;20394;-82
2023/04/11 07:45:53;;;;;;;4.82;3.00;;;6.50;99.90;;;;;;5082805;28;20380;-82
2023/04/11 07:48:20;;;;;;;4.82;2.95;;;6.60;99.90;;;;;;5066378;28;20029;-82
2023/04/11 07:50:46;;;;;;;6.50;2.50;;;6.70;99.90;;;;;;5076910;28;20028;-82
2023/04/11 07:53:12;;;;;;;4.10;2.10;;;6.80;99.90;;;;;;5077690;28;20032;-81
2023/04/11 07:55:38;;;;;;;6.82;2.17;;;7.00;99.90;;;;;;5094988;28;20020;-82
2023/04/11 07:58:04;;;;;;;3.88;2.15;;;7.10;99.90;;;;;;5070265;28;20044;-81
2023/04/11 08:00:32;;;;;;;4.80;2.75;;;7.20;99.90;;;;;;5040590;28;20051;-80
2023/04/11 08:03:01;;;;;;;6.25;3.13;;;7.30;99.90;;;;;;5068040;28;20035;-82
2023/04/11 08:05:28;;;;;;;7.45;3.08;;;7.40;99.90;;;;;;5060643;28;20509;-81
2023/04/11 08:07:54;;;;;;;10.88;3.75;;;7.40;99.90;;;;;;5071121;28;20067;-82
2023/04/11 08:10:20;;;;;;;10.70;4.82;;;7.50;99.90;;;;;;5064375;28;20035;-82
2023/04/11 08:12:46;;;;;;;7.15;4.30;;;7.50;99.90;;;;;;5091150;28;20025;-82
2023/04/11 08:15:11;;;;;;;8.00;4.28;;;7.60;99.90;;;;;;5063529;28;20033;-83
2023/04/11 08:17:39;;;;;;;8.02;4.25;;;7.60;99.90;;;;;;5086771;28;20024;-82
2023/04/11 08:20:09;;;;;;;5.72;3.10;;;7.60;99.90;;;;;;5100208;28;20484;-81
2023/04/11 08:22:35;;;;;;;6.57;3.40;;;7.60;99.90;;;;;;5066199;28;20115;-82
2023/04/11 08:25:01;;;;;;;6.45;3.45;;;7.60;99.90;;;;;;5099105;28;20051;-82
2023/04/11 08:27:27;;;;;;;6.07;3.40;;;7.70;99.90;;;;;;5080485;28;20397;-81
2023/04/11 08:29:52;;;;;;;5.13;3.13;;;7.70;99.90;;;;;;5079980;28;20043;-81
2023/04/11 08:32:18;;;;;;;6.10;3.30;;;7.70;99.90;;;;;;5098632;28;20035;-82
2023/04/11 08:34:44;;;;;;;7.00;4.00;;;7.70;99.90;;;;;;5078940;28;20062;-82
2023/04/11 08:37:10;;;;;;;10.50;5.05;;;7.80;99.90;;;;;;5097776;28;20074;-82
2023/04/11 08:39:36;;;;;;;7.22;4.30;;;7.80;99.90;;;;;;5078939;28;20024;-82
2023/04/11 08:42:02;;;;;;;8.88;3.85;;;7.80;99.90;;;;;;5097975;28;20024;-82
2023/04/11 08:44:28;;;;;;;8.65;3.60;;;7.90;99.90;;;;;;5097738;28;20032;-81
2023/04/11 08:46:54;;;;;;;9.27;3.90;;;8.00;99.90;;;;;;5097955;28;20027;-82
2023/04/11 08:49:20;;;;;;;6.32;3.92;;;8.00;99.90;;;;;;5062008;28;20032;-82
2023/04/11 08:51:46;;;;;;;7.75;3.83;;;8.10;99.90;;;;;;5077159;28;20135;-82
2023/04/11 08:54:14;;;;;;;5.65;3.78;;;8.20;99.90;;;;;;5059219;28;20074;-81
2023/04/11 08:56:42;;;;;;;6.18;3.90;;;8.40;99.90;;;;;;5077641;28;20103;-82
2023/04/11 08:59:07;;;;;;;6.63;3.90;;;8.50;99.90;;;;;;5076857;28;20032;-81
2023/04/11 09:01:35;;;;;;;7.85;4.30;;;8.60;99.90;;;;;;5094648;28;20485;-81
2023/04/11 09:04:06;;;;;;;6.25;3.50;;;8.70;99.90;;;;;;5116539;28;20028;-82
2023/04/11 09:06:32;;;;;;;6.90;3.42;;;8.80;99.90;;;;;;5093991;28;20028;-81
2023/04/11 09:08:59;;;;;;;7.43;3.65;;;8.90;99.90;;;;;;5090831;28;20452;-80
2023/04/11 09:11:25;;;;;;;6.65;3.88;;;9.00;99.90;;;;;;5059714;28;20036;-81
2023/04/11 09:14:08;;;;;;;8.73;4.28;;;9.00;99.90;;;;;;5062338;28;20055;-80
2023/04/11 09:16:34;;;;;;;7.40;3.65;;;9.00;99.90;;;;;;5074755;28;20474;-81
2023/04/11 09:19:00;;;;;;;7.05;4.05;;;9.00;99.90;;;;;;5058414;28;20027;-81
2023/04/11 09:21:28;;;;;;;6.20;3.42;;;9.10;99.90;;;;;;5058480;28;20024;-81
2023/04/11 09:24:12;;;;;;;4.70;2.85;;;9.10;99.90;;;;;;5075617;28;20024;-81
2023/04/11 09:26:39;;;;;;;7.25;3.13;;;9.20;99.90;;;;;;5077008;28;20477;-82
2023/04/11 09:29:04;;;;;;;5.70;3.13;;;9.30;99.90;;;;;;5058627;28;20036;-81
2023/04/11 09:31:41;;;;;;;5.82;2.85;;;9.40;99.90;;;;;;5076861;28;20028;-81
2023/04/11 09:34:07;;;;;;;5.70;3.40;;;9.50;99.90;;;;;;5058134;28;20028;-81
2023/04/11 09:36:33;;;;;;;7.25;3.47;;;9.50;99.90;;;;;;5058139;28;20031;-81
2023/04/11 09:39:00;;;;;;;5.07;2.80;;;9.50;99.90;;;;;;5083216;28;20031;-80
2023/04/11 09:41:34;;;;;;;8.18;3.53;;;9.50;99.90;;;;;;5078015;28;20478;-82
2023/04/11 09:44:01;;;;;;;7.50;3.58;;;9.60;99.90;;;;;;5080725;28;20539;-82
2023/04/11 09:46:27;;;;;;;5.90;3.17;;;9.60;99.90;;;;;;5079920;28;20036;-82
2023/04/11 09:48:54;;;;;;;5.88;3.35;;;9.60;99.90;;;;;;5077479;28;20116;-82
2023/04/11 09:51:20;;;;;;;4.97;3.03;;;9.60;99.90;;;;;;5060145;28;20566;-82
2023/04/11 09:53:46;;;;;;;8.98;3.10;;;9.70;99.90;;;;;;5060181;28;20517;-82
2023/04/11 09:56:12;;;;;;;4.18;2.88;;;9.80;99.90;;;;;;5043539;28;20036;-82
2023/04/11 09:58:40;;;;;;;6.38;2.65;;;9.80;99.90;;;;;;5076157;28;20075;-82
2023/04/11 10:01:09;;;;;;;6.35;2.75;;;9.90;99.90;;;;;;5075373;28;20029;-81
2023/04/11 10:03:37;;;;;;;5.10;3.47;;;10.00;99.90;;;;;;5077062;28;20544;-81
2023/04/11 10:06:21;;;;;;;6.97;3.53;;;10.00;99.90;;;;;;5077067;28;20016;-82
2023/04/11 10:08:49;;;;;;;8.93;5.60;;;10.00;99.90;;;;;;5076604;28;20378;-81
2023/04/11 10:11:19;;;;;;;12.55;6.97;;;10.00;99.90;;;;;;5076091;28;20024;-81
2023/04/11 10:13:46;;;;;;;15.10;7.50;;;10.00;99.90;;;;;;5076672;28;20059;-81
2023/04/11 10:16:13;;;;;;;13.20;7.22;;;10.00;99.90;;;;;;5075854;28;20024;-81
2023/04/11 10:19:03;;;;;;;6.35;4.00;;;10.00;99.90;;;;;;5075875;28;20020;-81
2023/04/11 10:21:29;;;;;;;7.18;3.85;;;10.00;99.90;;;;;;5065658;28;20035;-81
2023/04/11 10:24:10;;;;;;;11.00;5.68;;;10.00;99.90;;;;;;5057520;28;20553;-81
2023/04/11 10:26:58;;;;;;;9.68;5.60;;;10.00;99.90;;;;;;5075880;28;20440;-81
2023/04/11 10:29:28;;;;;;;13.82;5.10;;;10.10;99.90;;;;;;5058932;28;20032;-82
2023/04/11 10:32:10;;;;;;;13.27;5.57;;;10.10;99.90;;;;;;5064811;28;20021;-82
2023/04/11 10:34:40;;;;;;;10.80;5.38;;;10.10;99.90;;;;;;5055986;28;20142;-82
2023/04/11 10:37:10;;;;;;;5.93;3.13;;;10.10;99.90;;;;;;5056381;28;20033;-82
2023/04/11 10:39:59;;;;;;;6.38;2.40;;;10.10;99.90;;;;;;5073965;28;20020;-80
2023/04/11 10:42:26;;;;;;;5.60;3.00;;;10.10;99.90;;;;;;5074776;28;20134;-81
2023/04/11 10:45:23;;;;;;;4.45;2.53;;;10.00;99.90;;;;;;5039601;28;20448;-81
2023/04/11 10:48:02;;;;;;;4.55;2.90;;;9.90;99.90;;;;;;5074274;28;20033;-81
2023/04/11 10:50:32;;;;;;;6.47;2.80;;;9.90;99.90;;;;;;5055606;28;20505;-81
2023/04/11 10:53:08;;;;;;;3.78;2.42;;;9.90;99.90;;;;;;5074186;28;20458;-81
2023/04/11 10:55:47;;;;;;;4.38;2.65;;;9.80;99.90;;;;;;5073980;28;20102;-80
2023/04/11 10:58:18;;;;;;;4.57;2.63;;;9.90;99.90;;;;;;5073980;28;20053;-81
2023/04/11 11:00:50;;;;;;;3.50;2.63;;;9.90;99.90;;;;;;5075652;28;20105;-80
2023/04/11 11:03:20;;;;;;;4.03;2.60;;;9.80;99.90;;;;;;5094100;28;20024;-81
2023/04/11 11:05:46;;;;;;;4.68;2.47;;;9.80;99.90;;;;;;5094000;28;20031;-81
2023/04/11 11:08:12;;;;;;;2.50;1.60;;;9.90;99.90;;;;;;5094318;28;20028;-81
2023/04/11 11:10:38;;;;;;;3.30;1.83;;;9.90;99.90;;;;;;5094018;28;20028;-81
2023/04/11 11:13:04;;;;;;;1.13;0.60;;;9.80;99.90;;;;;;5094122;28;20024;-80
2023/04/11 11:15:36;;;;;;;2.08;0.98;;;9.70;99.90;;;;;;5094250;28;20024;-81
2023/04/11 11:18:03;;;;;;;1.85;0.77;;;9.60;99.90;;;;;;5061717;28;20038;-81
2023/04/11 11:20:29;;;;;;;2.55;0.77;;;9.50;99.90;;;;;;5094326;28;20020;-81
2023/04/11 11:23:04;;;;;;;2.90;1.08;;;9.30;99.90;;;;;;5076819;28;20103;-81
2023/04/11 11:25:30;;;;;;;3.25;1.00;;;9.10;99.90;;;;;;5075973;28;20024;-82
2023/04/11 11:28:06;;;;;;;0.73;0.40;;;9.00;99.90;;;;;;5094297;28;20028;-82
2023/04/11 11:30:32;;;;;;;2.70;0.57;;;8.90;99.90;;;;;;5093922;28;20063;-84
2023/04/11 11:32:58;;;;;;;0.20;0.20;;;8.90;99.90;;;;;;5074323;28;20358;-82
2023/04/11 11:35:24;;;;;;;0.60;0.30;;;8.70;99.90;;;;;;5073805;28;20032;-83
2023/04/11 11:37:52;;;;;;;0.25;0.20;;;8.60;99.90;;;;;;5073943;28;20067;-86
2023/04/11 11:40:21;;;;;;;0.10;0.10;;;8.50;99.90;;;;;;5073763;28;20409;-85
2023/04/11 11:42:49;;;;;;;0.75;0.30;;;8.40;99.90;;;;;;5055808;28;20029;-85
2023/04/11 11:45:19;;;;;;;0.30;0.25;;;8.30;99.90;;;;;;5056317;28;20032;-86
2023/04/11 11:47:46;;;;;;;0.73;0.33;;;8.30;99.90;;;;;;5076883;28;20479;-86
2023/04/11 11:50:32;;;;;;;0.90;0.63;;;8.40;99.90;;;;;;5059744;28;20017;-86
2023/04/11 11:53:14;;;;;;;1.85;0.20;;;8.40;99.90;;;;;;5078207;28;20097;-83
2023/04/11 11:55:41;;;;;;;0.13;0.10;;;8.40;99.90;;;;;;5080170;28;20024;-85
2023/04/11 11:58:08;;;;;;;0.47;0.30;;;8.40;99.90;;;;;;5046558;28;20501;-84
2023/04/11 12:00:38;;;;;;;0.40;0.30;;;8.40;99.90;;;;;;5045783;28;20040;-85
2023/04/11 12:03:06;;;;;;;0.88;0.50;;;8.40;99.90;;;;;;5079963;28;20054;-86
2023/04/11 12:05:33;;;;;;;1.30;0.50;;;8.40;99.90;;;;;;5063157;28;20086;-85
2023/04/11 12:08:01;;;;;;;1.58;0.60;;;8.40;99.90;;;;;;5079948;28;20028;-85
2023/04/11 12:10:42;;;;;;;1.67;0.75;;;8.30;99.90;;;;;;5079619;28;20028;-86
2023/04/11 12:13:30;;;;;;;0.85;0.55;;;8.30;99.90;;;;;;5098051;28;20052;-84
2023/04/11 12:16:00;;;;;;;0.30;0.30;;;8.20;99.90;;;;;;5079384;28;20123;-85
2023/04/11 12:18:27;;;;;;;0.73;0.30;;;8.10;99.90;;;;;;5063527;28;20031;-87
2023/04/11 12:20:53;;;;;;;1.13;0.43;;;8.10;99.90;;;;;;5079089;28;20028;-86
2023/04/11 12:23:20;;;;;;;0.40;0.30;;;8.00;99.90;;;;;;5079179;28;20027;-87
2023/04/11 12:25:46;;;;;;;0.38;0.20;;;8.00;99.90;;;;;;5079732;28;20024;-87
2023/04/11 12:28:13;;;;;;;1.55;0.20;;;7.90;99.90;;;;;;5079486;28;20031;-86
2023/04/11 12:30:39;;;;;;;0.30;0.20;;;7.90;99.90;;;;;;5062837;28;20055;-87
2023/04/11 12:33:26;;;;;;;0.45;0.35;;;7.80;99.90;;;;;;5059238;28;20150;-88
2023/04/11 12:35:52;;;;;;;0.38;0.20;;;7.80;99.90;;;;;;5058779;28;20028;-87
2023/04/11 12:38:36;;;;;;;1.10;0.17;;;7.80;99.90;;;;;;5058868;28;20025;-87
2023/04/11 12:41:02;;;;;;;1.38;0.25;;;7.70;99.90;;;;;;5058533;28;20021;-86
2023/04/11 12:43:28;;;;;;;0.38;0.30;;;7.80;99.90;;;;;;5058309;28;20398;-86
2023/04/11 12:45:54;;;;;;;0.35;0.30;;;7.80;99.90;;;;;;5076321;28;20021;-86
2023/04/11 12:48:20;;;;;;;0.77;0.20;;;7.70;99.90;;;;;;5041906;28;20536;-87
2023/04/11 12:50:46;;;;;;;0.43;0.22;;;7.70;99.90;;;;;;5058541;28;20032;-86
2023/04/11 12:53:33;;;;;;;1.38;0.73;;;7.80;99.90;;;;;;5057454;28;20524;-86
2023/04/11 12:55:59;;;;;;;3.65;1.55;;;7.80;99.90;;;;;;5057752;28;20493;-86
2023/04/11 12:58:25;;;;;;;3.70;1.95;;;7.80;99.90;;;;;;5058325;28;20033;-87